sensor_id;sensor_type;location;lat;lon;timestamp;pressure;altitude;pressure_sealevel;temperature;humidity
55858;BME280;41779;52.360;31.026;2022-10-28T00:04:07;1036.1;;;14;64.4
55858;BME280;41779;52.360;31.026;2022-10-28T00:09:27;1036.2;;;14;64.4
55858;BME280;41779;52.360;31.026;2022-10-28T00:14:29;1036.2;;;14;64.6
55858;BME280;41779;52.360;31.026;2022-10-28T00:18:57;1036.2;;;14;64.9
55858;BME280;41779;52.360;31.026;2022-10-28T00:24:41;1036.2;;;13.9;65.1
55858;BME280;41779;52.360;31.026;2022-10-28T00:29:15;1036.2;;;13.9;65.2
55858;BME280;41779;52.360;31.026;2022-10-28T00:34:27;1036.3;;;13.9;65.5
55858;BME280;41779;52.360;31.026;2022-10-28T00:39:13;1036.3;;;13.8;65.9
55858;BME280;41779;52.360;31.026;2022-10-28T00:44:39;1036.3;;;13.8;66.4
55858;BME280;41779;52.360;31.026;2022-10-28T00:49:19;1036.3;;;13.7;66.7
55858;BME280;41779;52.360;31.026;2022-10-28T00:54:27;1036.4;;;13.7;66.9
55858;BME280;41779;52.360;31.026;2022-10-28T00:59:15;1036.4;;;13.8;66.9
55858;BME280;41779;52.360;31.026;2022-10-28T01:04:31;1036.4;;;13.8;66.9
55858;BME280;41779;52.360;31.026;2022-10-28T01:09:05;1036.3;;;13.7;67
55858;BME280;41779;52.360;31.026;2022-10-28T01:14:41;1036.3;;;13.7;67.3
55858;BME280;41779;52.360;31.026;2022-10-28T01:19:36;1036.3;;;13.7;67.5
55858;BME280;41779;52.360;31.026;2022-10-28T01:24:03;1036.3;;;13.7;67.6
55858;BME280;41779;52.360;31.026;2022-10-28T01:29:24;1036.3;;;13.7;67.7
55858;BME280;41779;52.360;31.026;2022-10-28T01:34:10;1036.3;;;13.7;67.7
55858;BME280;41779;52.360;31.026;2022-10-28T01:39:44;1036.3;;;13.7;67.7
55858;BME280;41779;52.360;31.026;2022-10-28T01:44:44;1036.3;;;13.6;67.9
55858;BME280;41779;52.360;31.026;2022-10-28T01:49:45;1036.3;;;13.6;68
55858;BME280;41779;52.360;31.026;2022-10-28T01:54:19;1036.3;;;13.7;68
55858;BME280;41779;52.360;31.026;2022-10-28T01:58:57;1036.3;;;13.7;67.8
55858;BME280;41779;52.360;31.026;2022-10-28T02:04:09;1036.3;;;13.7;67.8
55858;BME280;41779;52.360;31.026;2022-10-28T02:09:50;1036.2;;;13.8;67.7
55858;BME280;41779;52.360;31.026;2022-10-28T02:14:21;1036.2;;;13.8;67.6
55858;BME280;41779;52.360;31.026;2022-10-28T02:19:30;1036.2;;;13.8;67.5
55858;BME280;41779;52.360;31.026;2022-10-28T02:24:10;1036.2;;;13.9;67.4
55858;BME280;41779;52.360;31.026;2022-10-28T02:29:45;1036.2;;;13.9;67.4
55858;BME280;41779;52.360;31.026;2022-10-28T02:33:58;1036.2;;;13.9;67.5
55858;BME280;41779;52.360;31.026;2022-10-28T02:39:29;1036.2;;;13.9;67.4
55858;BME280;41779;52.360;31.026;2022-10-28T02:44:33;1036.2;;;13.9;67.3
55858;BME280;41779;52.360;31.026;2022-10-28T02:48:57;1036.2;;;13.8;67.2
55858;BME280;41779;52.360;31.026;2022-10-28T02:54:36;1036.2;;;13.7;67.1
55858;BME280;41779;52.360;31.026;2022-10-28T02:59:50;1036.2;;;13.7;67.2
55858;BME280;41779;52.360;31.026;2022-10-28T03:04:43;1036.2;;;13.7;67.3
55858;BME280;41779;52.360;31.026;2022-10-28T03:09:19;1036.2;;;13.6;67.5
55858;BME280;41779;52.360;31.026;2022-10-28T03:14:05;1036.2;;;13.6;67.5
55858;BME280;41779;52.360;31.026;2022-10-28T03:19:21;1036.2;;;13.6;67.4
55858;BME280;41779;52.360;31.026;2022-10-28T03:24:45;1036.1;;;13.6;67.4
55858;BME280;41779;52.360;31.026;2022-10-28T03:29:05;1036.1;;;13.7;67.2
55858;BME280;41779;52.360;31.026;2022-10-28T03:34:29;1036.1;;;13.7;67.1
55858;BME280;41779;52.360;31.026;2022-10-28T03:38:57;1036.1;;;13.8;67.1
55858;BME280;41779;52.360;31.026;2022-10-28T03:44:45;1036;;;13.7;67.3
55858;BME280;41779;52.360;31.026;2022-10-28T03:49:21;1036;;;13.7;67.4
55858;BME280;41779;52.360;31.026;2022-10-28T03:54:29;1036;;;13.7;66.9
55858;BME280;41779;52.360;31.026;2022-10-28T03:59:33;1036;;;13.8;66.4
55858;BME280;41779;52.360;31.026;2022-10-28T04:04:09;1036;;;13.8;65.9
55858;BME280;41779;52.360;31.026;2022-10-28T04:09:41;1036;;;13.8;66
55858;BME280;41779;52.360;31.026;2022-10-28T04:14:43;1036;;;13.7;66.2
55858;BME280;41779;52.360;31.026;2022-10-28T04:19:43;1036;;;13.7;66.3
55858;BME280;41779;52.360;31.026;2022-10-28T04:24:17;1036;;;13.7;66.2
55858;BME280;41779;52.360;31.026;2022-10-28T04:29:09;1036;;;13.7;66.2
55858;BME280;41779;52.360;31.026;2022-10-28T04:34:21;1035.9;;;13.7;66.3
55858;BME280;41779;52.360;31.026;2022-10-28T04:39:43;1035.8;;;13.7;66.4
55858;BME280;41779;52.360;31.026;2022-10-28T04:44:17;1035.9;;;13.8;66.6
55858;BME280;41779;52.360;31.026;2022-10-28T04:49:19;1035.9;;;13.8;66.6
55858;BME280;41779;52.360;31.026;2022-10-28T04:54:09;1036;;;13.8;66.4
55858;BME280;41779;52.360;31.026;2022-10-28T04:59:43;1036;;;13.7;66.4
55858;BME280;41779;52.360;31.026;2022-10-28T05:04:21;1036;;;13.7;66.6
55858;BME280;41779;52.360;31.026;2022-10-28T05:09:29;1036.1;;;13.7;66.7
55858;BME280;41779;52.360;31.026;2022-10-28T05:14:29;1036.1;;;13.7;66.8
55858;BME280;41779;52.360;31.026;2022-10-28T05:19:09;1036.1;;;13.6;67
55858;BME280;41779;52.360;31.026;2022-10-28T05:24:43;1036.1;;;13.5;67.3
55858;BME280;41779;52.360;31.026;2022-10-28T05:29:29;1036.1;;;13.5;67.4
55858;BME280;41779;52.360;31.026;2022-10-28T05:34:43;1036.1;;;13.5;67.5
55858;BME280;41779;52.360;31.026;2022-10-28T05:39:03;1036.1;;;13.5;67.6
55858;BME280;41779;52.360;31.026;2022-10-28T05:43:57;1036.1;;;13.6;67.6
55858;BME280;41779;52.360;31.026;2022-10-28T05:49:19;1036.1;;;13.6;67.7
55858;BME280;41779;52.360;31.026;2022-10-28T05:54:41;1036.2;;;13.6;67.7
55858;BME280;41779;52.360;31.026;2022-10-28T05:59:29;1036.1;;;13.6;67.8
55858;BME280;41779;52.360;31.026;2022-10-28T06:04:43;1036.1;;;13.7;67.8
55858;BME280;41779;52.360;31.026;2022-10-28T06:09:09;1036.1;;;13.6;67.8
55858;BME280;41779;52.360;31.026;2022-10-28T06:14:43;1036.1;;;13.6;68
55858;BME280;41779;52.360;31.026;2022-10-28T06:19:21;1036.1;;;13.7;68.1
55858;BME280;41779;52.360;31.026;2022-10-28T06:24:27;1036.2;;;13.7;68
55858;BME280;41779;52.360;31.026;2022-10-28T06:29:32;1036.2;;;13.8;68
55858;BME280;41779;52.360;31.026;2022-10-28T06:33:57;1036.2;;;13.9;67.9
55858;BME280;41779;52.360;31.026;2022-10-28T06:39:41;1036.2;;;13.9;67.8
55858;BME280;41779;52.360;31.026;2022-10-28T06:44:29;1036.2;;;14.1;67.5
55858;BME280;41779;52.360;31.026;2022-10-28T06:49:41;1036.2;;;14.2;67.3
55858;BME280;41779;52.360;31.026;2022-10-28T06:54:05;1036.2;;;14.3;67.1
55858;BME280;41779;52.360;31.026;2022-10-28T06:58:57;1036.1;;;14.3;67.1
55858;BME280;41779;52.360;31.026;2022-10-28T07:04:21;1036.1;;;14.3;67.1
55858;BME280;41779;52.360;31.026;2022-10-28T07:09:39;1036.1;;;14.4;67
55858;BME280;41779;52.360;31.026;2022-10-28T07:14:17;1036.1;;;14.5;66.5
55858;BME280;41779;52.360;31.026;2022-10-28T07:19:15;1036.1;;;14.6;66.4
55858;BME280;41779;52.360;31.026;2022-10-28T07:24:09;1036.1;;;14.6;66.3
55858;BME280;41779;52.360;31.026;2022-10-28T07:29:43;1036.2;;;14.7;66.4
55858;BME280;41779;52.360;31.026;2022-10-28T07:34:21;1036.3;;;14.7;66.4
55858;BME280;41779;52.360;31.026;2022-10-28T07:39:27;1036.2;;;14.7;66.4
55858;BME280;41779;52.360;31.026;2022-10-28T07:44:27;1036.2;;;14.6;66.4
55858;BME280;41779;52.360;31.026;2022-10-28T07:49:09;1036.2;;;14.5;66.9
55858;BME280;41779;52.360;31.026;2022-10-28T07:54:41;1036.2;;;14.4;66.9
55858;BME280;41779;52.360;31.026;2022-10-28T07:59:41;1036.2;;;14.4;67
55858;BME280;41779;52.360;31.026;2022-10-28T08:04:41;1036.2;;;14.6;66.8
55858;BME280;41779;52.360;31.026;2022-10-28T08:09:11;1036.2;;;14.8;66.5
55858;BME280;41779;52.360;31.026;2022-10-28T08:14:09;1036.2;;;15;65.9
55858;BME280;41779;52.360;31.026;2022-10-28T08:19:09;1036.2;;;15.3;64.9
55858;BME280;41779;52.360;31.026;2022-10-28T08:24:41;1036.2;;;15.6;64.2
55858;BME280;41779;52.360;31.026;2022-10-28T08:29:17;1036.1;;;15.8;63.7
55858;BME280;41779;52.360;31.026;2022-10-28T08:34:27;1036.1;;;15.8;63.7
55858;BME280;41779;52.360;31.026;2022-10-28T08:39:09;1036.1;;;15.8;63.5
55858;BME280;41779;52.360;31.026;2022-10-28T08:44:47;1036.1;;;15.7;63
55858;BME280;41779;52.360;31.026;2022-10-28T08:49:21;1036;;;15.6;63
55858;BME280;41779;52.360;31.026;2022-10-28T08:54:26;1036;;;15.6;63.4
55858;BME280;41779;52.360;31.026;2022-10-28T08:59:30;1036;;;15.6;63.5
55858;BME280;41779;52.360;31.026;2022-10-28T09:04:11;1036;;;15.7;63.6
55858;BME280;41779;52.360;31.026;2022-10-28T09:09:39;1036;;;15.7;63.6
55858;BME280;41779;52.360;31.026;2022-10-28T09:14:43;1036;;;15.7;63.5
55858;BME280;41779;52.360;31.026;2022-10-28T09:19:44;1036;;;15.8;63.1
55858;BME280;41779;52.360;31.026;2022-10-28T09:23:58;1035.9;;;15.9;63
55858;BME280;41779;52.360;31.026;2022-10-28T09:29:15;1035.9;;;15.8;63
55858;BME280;41779;52.360;31.026;2022-10-28T09:34:24;1035.8;;;15.8;63.3
55858;BME280;41779;52.360;31.026;2022-10-28T09:39:40;1035.8;;;16;63.2
55858;BME280;41779;52.360;31.026;2022-10-28T09:44:18;1035.7;;;16.2;62.6
55858;BME280;41779;52.360;31.026;2022-10-28T09:49:27;1035.6;;;16.4;61.7
55858;BME280;41779;52.360;31.026;2022-10-28T09:53:57;1035.5;;;16.7;60.6
55858;BME280;41779;52.360;31.026;2022-10-28T09:59:42;1035.6;;;16.9;60
55858;BME280;41779;52.360;31.026;2022-10-28T10:04:22;1035.5;;;17.1;59.8
55858;BME280;41779;52.360;31.026;2022-10-28T10:09:25;1035.4;;;17.2;59.7
55858;BME280;41779;52.360;31.026;2022-10-28T10:14:29;1035.4;;;17.3;59.1
55858;BME280;41779;52.360;31.026;2022-10-28T10:19:09;1035.3;;;17.2;57.9
55858;BME280;41779;52.360;31.026;2022-10-28T10:24:41;1035.3;;;17;58
55858;BME280;41779;52.360;31.026;2022-10-28T10:29:33;1035.3;;;17;57.9
55858;BME280;41779;52.360;31.026;2022-10-28T10:34:13;1035.3;;;16.9;58
55858;BME280;41779;52.360;31.026;2022-10-28T10:39:41;1035.3;;;16.9;58.3
55858;BME280;41779;52.360;31.026;2022-10-28T10:44:22;1035.2;;;16.9;58.1
55858;BME280;41779;52.360;31.026;2022-10-28T10:49:11;1035.2;;;16.9;57.2
55858;BME280;41779;52.360;31.026;2022-10-28T10:54:19;1035.1;;;16.8;57.2
55858;BME280;41779;52.360;31.026;2022-10-28T10:59:43;1035;;;16.8;57.5
55858;BME280;41779;52.360;31.026;2022-10-28T11:04:46;1035;;;16.7;57.7
55858;BME280;41779;52.360;31.026;2022-10-28T11:09:02;1034.9;;;16.7;57.9
55858;BME280;41779;52.360;31.026;2022-10-28T11:14:16;1034.9;;;16.7;57.5
55858;BME280;41779;52.360;31.026;2022-10-28T11:19:30;1034.8;;;16.5;57.5
55858;BME280;41779;52.360;31.026;2022-10-28T11:24:37;1034.7;;;16.6;57.9
55858;BME280;41779;52.360;31.026;2022-10-28T11:29:15;1034.6;;;16.7;57.7
55858;BME280;41779;52.360;31.026;2022-10-28T11:33:58;1034.6;;;16.8;57.6
55858;BME280;41779;52.360;31.026;2022-10-28T11:39:11;1034.6;;;17;57.3
55858;BME280;41779;52.360;31.026;2022-10-28T11:44:37;1034.5;;;17.1;56.3
55858;BME280;41779;52.360;31.026;2022-10-28T11:48:59;1034.4;;;17.1;55.9
55858;BME280;41779;52.360;31.026;2022-10-28T11:54:45;1034.4;;;17.1;55.4
55858;BME280;41779;52.360;31.026;2022-10-28T11:58:59;1034.4;;;17.1;55.7
55858;BME280;41779;52.360;31.026;2022-10-28T12:04:01;1034.4;;;17.1;55.5
55858;BME280;41779;52.360;31.026;2022-10-28T12:09:09;1034.3;;;17.2;55.2
55858;BME280;41779;52.360;31.026;2022-10-28T12:14:43;1034.3;;;17.4;54.1
55858;BME280;41779;52.360;31.026;2022-10-28T12:19:42;1034.2;;;17.8;52.2
55858;BME280;41779;52.360;31.026;2022-10-28T12:24:09;1034.2;;;18;51.7
55858;BME280;41779;52.360;31.026;2022-10-28T12:29:09;1034.2;;;18.1;51.2
55858;BME280;41779;52.360;31.026;2022-10-28T12:34:29;1034.1;;;18.1;51.4
55858;BME280;41779;52.360;31.026;2022-10-28T12:39:33;1034;;;17.9;51.6
55858;BME280;41779;52.360;31.026;2022-10-28T12:44:17;1034;;;17.7;51.6
55858;BME280;41779;52.360;31.026;2022-10-28T12:48:56;1034;;;17.5;51.5
55858;BME280;41779;52.360;31.026;2022-10-28T12:54:12;1034.1;;;17.3;51.9
55858;BME280;41779;52.360;31.026;2022-10-28T12:59:34;1034.1;;;17.2;52.3
55858;BME280;41779;52.360;31.026;2022-10-28T13:04:19;1034.1;;;17.1;52.7
55858;BME280;41779;52.360;31.026;2022-10-28T13:09:44;1034.1;;;17.1;52.8
55858;BME280;41779;52.360;31.026;2022-10-28T13:13:55;1034;;;17;52.9
55858;BME280;41779;52.360;31.026;2022-10-28T13:18:58;1034;;;17;52.9
55858;BME280;41779;52.360;31.026;2022-10-28T13:24:10;1034;;;17;52.9
55858;BME280;41779;52.360;31.026;2022-10-28T13:29:43;1034;;;17;53
55858;BME280;41779;52.360;31.026;2022-10-28T13:34:43;1034;;;16.9;52.9
55858;BME280;41779;52.360;31.026;2022-10-28T13:38:56;1033.9;;;16.8;53.1
55858;BME280;41779;52.360;31.026;2022-10-28T13:49:21;1034;;;16.7;53.3
55858;BME280;41779;52.360;31.026;2022-10-28T13:53:57;1033.9;;;16.6;53.6
55858;BME280;41779;52.360;31.026;2022-10-28T13:59:15;1033.8;;;16.5;53.8
55858;BME280;41779;52.360;31.026;2022-10-28T14:04:41;1033.9;;;16.5;54.2
55858;BME280;41779;52.360;31.026;2022-10-28T14:08:55;1033.9;;;16.5;54.4
55858;BME280;41779;52.360;31.026;2022-10-28T14:14:33;1033.9;;;16.5;54.4
55858;BME280;41779;52.360;31.026;2022-10-28T14:19:05;1033.8;;;16.5;54.5
55858;BME280;41779;52.360;31.026;2022-10-28T14:24:43;1033.8;;;16.4;54.4
55858;BME280;41779;52.360;31.026;2022-10-28T14:29:21;1033.8;;;16.4;54.4
55858;BME280;41779;52.360;31.026;2022-10-28T14:34:36;1033.8;;;16.4;54.3
55858;BME280;41779;52.360;31.026;2022-10-28T14:39:22;1033.8;;;16.4;54.4
55858;BME280;41779;52.360;31.026;2022-10-28T14:44:49;1033.8;;;16.4;54.6
55858;BME280;41779;52.360;31.026;2022-10-28T14:49:54;1033.8;;;16.4;54.7
55858;BME280;41779;52.360;31.026;2022-10-28T14:54:45;1033.7;;;16.4;54.7
55858;BME280;41779;52.360;31.026;2022-10-28T14:58:56;1033.7;;;16.4;54.7
55858;BME280;41779;52.360;31.026;2022-10-28T15:04:29;1033.7;;;16.4;54.9
55858;BME280;41779;52.360;31.026;2022-10-28T15:09:21;1033.6;;;16.3;55
55858;BME280;41779;52.360;31.026;2022-10-28T15:14:14;1033.6;;;16.3;55.1
55858;BME280;41779;52.360;31.026;2022-10-28T15:19:16;1033.6;;;16.3;55.2
55858;BME280;41779;52.360;31.026;2022-10-28T15:23:57;1033.5;;;16.3;55.2
55858;BME280;41779;52.360;31.026;2022-10-28T15:29:43;1033.5;;;16.3;55.2
55858;BME280;41779;52.360;31.026;2022-10-28T15:34:19;1033.5;;;16.3;55.2
55858;BME280;41779;52.360;31.026;2022-10-28T15:39:43;1033.4;;;16.3;55.2
55858;BME280;41779;52.360;31.026;2022-10-28T15:43:56;1033.5;;;16.3;55.3
55858;BME280;41779;52.360;31.026;2022-10-28T15:49:18;1033.5;;;16.2;55.3
55858;BME280;41779;52.360;31.026;2022-10-28T15:54:08;1033.4;;;16.2;55.4
55858;BME280;41779;52.360;31.026;2022-10-28T15:59:27;1033.4;;;16.2;55.4
55858;BME280;41779;52.360;31.026;2022-10-28T16:04:42;1033.5;;;16.2;55.5
55858;BME280;41779;52.360;31.026;2022-10-28T16:09:42;1033.5;;;16.1;55.6
55858;BME280;41779;52.360;31.026;2022-10-28T16:13:55;1033.5;;;16.1;55.7
55858;BME280;41779;52.360;31.026;2022-10-28T16:19:30;1033.5;;;16.1;55.8
55858;BME280;41779;52.360;31.026;2022-10-28T16:24:33;1033.4;;;16.1;55.8
55858;BME280;41779;52.360;31.026;2022-10-28T16:29:16;1033.4;;;16;56
55858;BME280;41779;52.360;31.026;2022-10-28T16:34:43;1033.4;;;16;56.2
55858;BME280;41779;52.360;31.026;2022-10-28T16:39:09;1033.3;;;16;56.4
55858;BME280;41779;52.360;31.026;2022-10-28T16:44:41;1033.3;;;15.9;56.5
55858;BME280;41779;52.360;31.026;2022-10-28T16:49:17;1033.3;;;15.9;56.6
55858;BME280;41779;52.360;31.026;2022-10-28T16:54:41;1033.3;;;15.8;56.7
55858;BME280;41779;52.360;31.026;2022-10-28T16:59:15;1033.3;;;15.8;56.9
55858;BME280;41779;52.360;31.026;2022-10-28T17:04:07;1033.2;;;15.7;57.1
55858;BME280;41779;52.360;31.026;2022-10-28T17:09:05;1033.2;;;15.7;57.2
55858;BME280;41779;52.360;31.026;2022-10-28T17:14:27;1033.2;;;15.7;57.2
55858;BME280;41779;52.360;31.026;2022-10-28T17:19:39;1033.2;;;15.7;57.3
55858;BME280;41779;52.360;31.026;2022-10-28T17:24:41;1033.2;;;15.7;57.4
55858;BME280;41779;52.360;31.026;2022-10-28T17:29:08;1033.1;;;15.7;57.4
55858;BME280;41779;52.360;31.026;2022-10-28T17:34:29;1033.1;;;15.7;57.5
55858;BME280;41779;52.360;31.026;2022-10-28T17:39:33;1033;;;15.7;57.4
55858;BME280;41779;52.360;31.026;2022-10-28T17:44:15;1033;;;15.7;57.4
55858;BME280;41779;52.360;31.026;2022-10-28T17:49:43;1033;;;15.7;57.4
55858;BME280;41779;52.360;31.026;2022-10-28T17:54:07;1033;;;15.7;57.4
55858;BME280;41779;52.360;31.026;2022-10-28T17:59:43;1033;;;15.6;57.5
55858;BME280;41779;52.360;31.026;2022-10-28T18:04:08;1033;;;15.6;57.5
55858;BME280;41779;52.360;31.026;2022-10-28T18:09:42;1033;;;15.6;57.5
55858;BME280;41779;52.360;31.026;2022-10-28T18:14:13;1033;;;15.6;57.6
55858;BME280;41779;52.360;31.026;2022-10-28T18:18:55;1032.9;;;15.6;57.6
55858;BME280;41779;52.360;31.026;2022-10-28T18:24:07;1032.9;;;15.5;57.6
55858;BME280;41779;52.360;31.026;2022-10-28T18:29:29;1032.9;;;15.5;57.7
55858;BME280;41779;52.360;31.026;2022-10-28T18:34:43;1032.8;;;15.4;57.8
55858;BME280;41779;52.360;31.026;2022-10-28T18:39:41;1032.7;;;15.4;57.9
55858;BME280;41779;52.360;31.026;2022-10-28T18:43:56;1032.8;;;15.4;58
55858;BME280;41779;52.360;31.026;2022-10-28T18:49:29;1032.7;;;15.4;58
55858;BME280;41779;52.360;31.026;2022-10-28T18:54:33;1032.7;;;15.3;58
55858;BME280;41779;52.360;31.026;2022-10-28T18:59:13;1032.7;;;15.3;58.1
55858;BME280;41779;52.360;31.026;2022-10-28T19:04:41;1032.6;;;15.3;58.2
55858;BME280;41779;52.360;31.026;2022-10-28T19:09:29;1032.6;;;15.2;58.3
55858;BME280;41779;52.360;31.026;2022-10-28T19:14:43;1032.6;;;15.2;58.5
55858;BME280;41779;52.360;31.026;2022-10-28T19:19:07;1032.6;;;15.1;58.7
55858;BME280;41779;52.360;31.026;2022-10-28T19:24:43;1032.7;;;15;58.9
55858;BME280;41779;52.360;31.026;2022-10-28T19:29:15;1032.7;;;14.9;59.2
55858;BME280;41779;52.360;31.026;2022-10-28T19:34:15;1032.7;;;14.9;59.6
55858;BME280;41779;52.360;31.026;2022-10-28T19:38:56;1032.6;;;14.8;60.1
55858;BME280;41779;52.360;31.026;2022-10-28T19:44:29;1032.6;;;14.7;60.5
55858;BME280;41779;52.360;31.026;2022-10-28T19:49:41;1032.6;;;14.7;60.8
55858;BME280;41779;52.360;31.026;2022-10-28T19:54:31;1032.7;;;14.7;60.8
55858;BME280;41779;52.360;31.026;2022-10-28T19:59:07;1032.7;;;14.7;61
55858;BME280;41779;52.360;31.026;2022-10-28T20:04:29;1032.6;;;14.6;61.3
55858;BME280;41779;52.360;31.026;2022-10-28T20:09:31;1032.7;;;14.6;62
55858;BME280;41779;52.360;31.026;2022-10-28T20:14:15;1032.7;;;14.5;62.4
55858;BME280;41779;52.360;31.026;2022-10-28T20:19:43;1032.7;;;14.5;62.6
55858;BME280;41779;52.360;31.026;2022-10-28T20:23:56;1032.7;;;14.5;62.6
55858;BME280;41779;52.360;31.026;2022-10-28T20:29:43;1032.7;;;14.5;62.5
55858;BME280;41779;52.360;31.026;2022-10-28T20:34:20;1032.7;;;14.5;62.6
55858;BME280;41779;52.360;31.026;2022-10-28T20:39:39;1032.8;;;14.4;63
55858;BME280;41779;52.360;31.026;2022-10-28T20:44:15;1032.7;;;14.4;63.5
55858;BME280;41779;52.360;31.026;2022-10-28T20:49:19;1032.6;;;14.4;63.8
55858;BME280;41779;52.360;31.026;2022-10-28T20:54:19;1032.7;;;14.3;63.9
55858;BME280;41779;52.360;31.026;2022-10-28T20:59:27;1032.7;;;14.3;64
55858;BME280;41779;52.360;31.026;2022-10-28T21:04:43;1032.7;;;14.3;64.2
55858;BME280;41779;52.360;31.026;2022-10-28T21:09:39;1032.6;;;14.3;64.7
55858;BME280;41779;52.360;31.026;2022-10-28T21:13:56;1032.6;;;14.3;65.2
55858;BME280;41779;52.360;31.026;2022-10-28T21:19:21;1032.6;;;14.3;65.5
55858;BME280;41779;52.360;31.026;2022-10-28T21:24:33;1032.6;;;14.3;65.8
55858;BME280;41779;52.360;31.026;2022-10-28T21:29:15;1032.5;;;14.3;65.7
55858;BME280;41779;52.360;31.026;2022-10-28T21:34:43;1032.4;;;14.3;65.7
55858;BME280;41779;52.360;31.026;2022-10-28T21:39:07;1032.3;;;14.4;65.7
55858;BME280;41779;52.360;31.026;2022-10-28T21:44:19;1032.3;;;14.4;66
55858;BME280;41779;52.360;31.026;2022-10-28T21:49:17;1032.3;;;14.4;66.1
55858;BME280;41779;52.360;31.026;2022-10-28T21:54:43;1032.1;;;14.4;66.1
55858;BME280;41779;52.360;31.026;2022-10-28T21:59:11;1032.1;;;14.4;66
55858;BME280;41779;52.360;31.026;2022-10-28T22:03:55;1032.1;;;14.3;66
55858;BME280;41779;52.360;31.026;2022-10-28T22:09:13;1032.2;;;14.3;66.1
55858;BME280;41779;52.360;31.026;2022-10-28T22:14:25;1032.3;;;14.4;66.2
55858;BME280;41779;52.360;31.026;2022-10-28T22:19:39;1032.3;;;14.4;66.3
55858;BME280;41779;52.360;31.026;2022-10-28T22:24:39;1032.5;;;14.5;66.2
55858;BME280;41779;52.360;31.026;2022-10-28T22:29:07;1032.5;;;14.5;66.1
55858;BME280;41779;52.360;31.026;2022-10-28T22:34:25;1032.4;;;14.5;66
55858;BME280;41779;52.360;31.026;2022-10-28T22:39:27;1032.4;;;14.5;66
55858;BME280;41779;52.360;31.026;2022-10-28T22:44:03;1032.5;;;14.4;66.2
55858;BME280;41779;52.360;31.026;2022-10-28T22:49:39;1032.5;;;14.4;66.4
55858;BME280;41779;52.360;31.026;2022-10-28T22:54:11;1032.4;;;14.4;66.3
55858;BME280;41779;52.360;31.026;2022-10-28T22:59:39;1032.3;;;14.5;66.2
55858;BME280;41779;52.360;31.026;2022-10-28T23:04:13;1032.2;;;14.6;66
55858;BME280;41779;52.360;31.026;2022-10-28T23:09:39;1032.2;;;14.6;66.1
55858;BME280;41779;52.360;31.026;2022-10-28T23:14:09;1032.1;;;14.6;66.1
55858;BME280;41779;52.360;31.026;2022-10-28T23:19:03;1032;;;14.6;66
55858;BME280;41779;52.360;31.026;2022-10-28T23:24:15;1031.9;;;14.6;66
55858;BME280;41779;52.360;31.026;2022-10-28T23:29:23;1031.8;;;14.6;66
55858;BME280;41779;52.360;31.026;2022-10-28T23:34:37;1031.8;;;14.7;66
55858;BME280;41779;52.360;31.026;2022-10-28T23:39:37;1031.8;;;14.7;66
55858;BME280;41779;52.360;31.026;2022-10-28T23:44:13;1031.8;;;14.7;65.9
55858;BME280;41779;52.360;31.026;2022-10-28T23:49:39;1031.7;;;14.7;65.8
55858;BME280;41779;52.360;31.026;2022-10-28T23:54:29;1031.7;;;14.7;65.6
55858;BME280;41779;52.360;31.026;2022-10-28T23:59:25;1031.6;;;14.7;65.5
